createdAt,value
2023-12-13T00:00:59.724Z,26.10
2023-12-13T00:02:02.390Z,25.88
2023-12-13T00:03:05.596Z,26.40
2023-12-13T00:04:08.603Z,26.80
2023-12-13T00:05:11.293Z,25.62
2023-12-13T00:06:13.902Z,24.93
2023-12-13T00:07:16.553Z,24.78
2023-12-13T00:08:21.762Z,25.00
2023-12-13T00:09:24.453Z,24.85
2023-12-13T00:10:27.205Z,25.02
2023-12-13T00:11:29.887Z,25.47
2023-12-13T00:12:32.500Z,26.62
2023-12-13T00:13:35.803Z,25.97
2023-12-13T00:14:38.432Z,25.55
2023-12-13T00:15:41.068Z,25.15
2023-12-13T00:16:43.755Z,23.68
2023-12-13T00:17:46.470Z,24.77
2023-12-13T00:18:49.382Z,24.87
2023-12-13T00:19:52.246Z,24.58
2023-12-13T00:20:54.871Z,24.55
2023-12-13T00:21:57.574Z,24.82
2023-12-13T00:23:00.224Z,24.87
2023-12-13T00:24:03.094Z,26.95
2023-12-13T00:25:06.143Z,26.40
2023-12-13T00:26:16.540Z,24.85
2023-12-13T00:27:19.170Z,25.43
2023-12-13T00:28:22.306Z,25.02
2023-12-13T00:29:25.517Z,25.48
2023-12-13T00:30:28.207Z,25.05
2023-12-13T00:31:31.305Z,26.92
2023-12-13T00:32:33.990Z,25.77
2023-12-13T00:33:36.707Z,25.27
2023-12-13T00:34:39.408Z,25.92
2023-12-13T00:35:42.037Z,24.65
2023-12-13T00:36:44.667Z,26.38
2023-12-13T00:37:47.421Z,26.03
2023-12-13T00:38:50.059Z,25.18
2023-12-13T00:39:53.666Z,27.08
2023-12-13T00:40:57.005Z,25.75
2023-12-13T00:41:59.657Z,25.92
2023-12-13T00:43:02.774Z,25.65
2023-12-13T00:44:05.570Z,25.73
2023-12-13T00:45:09.510Z,26.43
2023-12-13T00:46:21.003Z,25.90
2023-12-13T00:47:23.923Z,24.85
2023-12-13T00:48:26.704Z,25.47
2023-12-13T00:49:29.404Z,25.03
2023-12-13T00:50:32.058Z,25.45
2023-12-13T00:51:34.638Z,25.87
2023-12-13T00:52:37.274Z,25.10
2023-12-13T00:53:40.202Z,25.72
2023-12-13T00:54:42.839Z,25.62
2023-12-13T00:55:45.515Z,26.10
2023-12-13T00:56:48.135Z,25.30
2023-12-13T00:57:50.765Z,24.83
2023-12-13T00:58:53.379Z,25.17
2023-12-13T00:59:56.053Z,24.55
2023-12-13T01:00:58.713Z,25.40
2023-12-13T01:02:01.792Z,25.88
2023-12-13T01:03:04.550Z,25.70
2023-12-13T01:04:07.203Z,25.22
2023-12-13T01:05:10.409Z,27.17
2023-12-13T01:06:13.074Z,25.08
2023-12-13T01:07:15.685Z,25.02
2023-12-13T01:08:18.594Z,26.38
2023-12-13T01:09:21.194Z,25.62
2023-12-13T01:10:23.861Z,25.33
2023-12-13T01:11:26.582Z,25.15
2023-12-13T01:12:29.251Z,25.68
2023-12-13T01:13:31.894Z,25.55
2023-12-13T01:14:35.005Z,25.48
2023-12-13T01:15:38.297Z,25.45
2023-12-13T01:16:40.955Z,25.38
2023-12-13T01:17:43.601Z,25.97
2023-12-13T01:18:46.275Z,26.42
2023-12-13T01:19:48.937Z,25.90
2023-12-13T01:20:51.575Z,26.08
2023-12-13T01:21:54.165Z,25.90
2023-12-13T01:22:57.313Z,27.02
2023-12-13T01:24:01.659Z,26.03
2023-12-13T01:25:04.611Z,26.57
2023-12-13T01:26:07.363Z,25.07
2023-12-13T01:27:10.001Z,26.73
2023-12-13T01:28:12.661Z,26.00
2023-12-13T01:29:15.406Z,26.43
2023-12-13T01:30:18.125Z,25.83
2023-12-13T01:31:20.758Z,27.33
2023-12-13T01:32:23.479Z,25.42
2023-12-13T01:33:26.178Z,26.12
2023-12-13T01:34:28.943Z,26.02
2023-12-13T01:35:31.554Z,25.33
2023-12-13T01:36:35.081Z,26.17
2023-12-13T01:37:37.911Z,26.18
2023-12-13T01:38:40.689Z,25.80
2023-12-13T01:39:43.262Z,25.87
2023-12-13T01:41:10.796Z,25.73
2023-12-13T01:42:15.017Z,25.82
2023-12-13T01:43:24.681Z,25.43
2023-12-13T01:44:27.317Z,25.38
2023-12-13T01:45:30.047Z,26.40
2023-12-13T01:46:32.895Z,26.30
2023-12-13T01:47:36.134Z,25.65
2023-12-13T01:48:39.926Z,25.33
2023-12-13T01:49:42.584Z,24.07
2023-12-13T01:50:45.337Z,25.55
2023-12-13T01:51:48.136Z,25.18
2023-12-13T01:53:11.234Z,24.82
2023-12-13T01:54:34.362Z,25.83
2023-12-13T01:55:37.110Z,25.42
2023-12-13T01:56:42.306Z,26.40
2023-12-13T01:57:44.954Z,26.43
2023-12-13T01:58:48.109Z,25.60
2023-12-13T01:59:51.287Z,25.55
2023-12-13T02:00:54.071Z,24.35
2023-12-13T02:01:57.801Z,25.23
2023-12-13T02:03:01.168Z,24.98
2023-12-13T02:04:07.007Z,25.43
2023-12-13T02:05:10.335Z,25.03
2023-12-13T02:06:12.960Z,24.95
2023-12-13T02:07:16.503Z,24.35
2023-12-13T02:08:19.244Z,25.18
2023-12-13T02:09:21.938Z,24.47
2023-12-13T02:10:24.602Z,25.07
2023-12-13T02:11:28.415Z,25.25
2023-12-13T02:12:31.278Z,25.10
2023-12-13T02:13:34.287Z,24.95
2023-12-13T02:14:36.950Z,25.68
2023-12-13T02:15:39.579Z,24.58
2023-12-13T02:16:42.284Z,23.97
2023-12-13T02:17:54.282Z,23.40
2023-12-13T02:18:56.935Z,23.50
2023-12-13T02:19:59.628Z,24.48
2023-12-13T02:21:02.314Z,23.77
2023-12-13T02:22:09.152Z,23.75
2023-12-13T02:23:11.862Z,23.47
2023-12-13T02:24:14.521Z,23.88
2023-12-13T02:25:22.955Z,23.92
2023-12-13T02:26:26.037Z,24.23
2023-12-13T02:27:31.209Z,23.52
2023-12-13T02:28:34.328Z,23.78
2023-12-13T02:29:37.490Z,23.57
2023-12-13T02:30:42.453Z,24.62
2023-12-13T02:31:45.585Z,23.93
2023-12-13T02:32:48.276Z,23.47
2023-12-13T02:33:51.009Z,23.70
2023-12-13T02:34:53.684Z,23.40
2023-12-13T02:35:59.212Z,24.07
2023-12-13T02:37:03.692Z,24.27
2023-12-13T02:38:06.301Z,23.55
2023-12-13T02:39:09.872Z,23.17
2023-12-13T02:40:14.686Z,24.43
2023-12-13T02:41:17.310Z,23.88
2023-12-13T02:42:20.425Z,24.47
2023-12-13T02:43:23.193Z,23.52
2023-12-13T02:44:25.814Z,23.47
2023-12-13T02:45:28.394Z,23.78
2023-12-13T02:46:31.010Z,22.32
2023-12-13T02:47:34.228Z,21.87
2023-12-13T02:48:37.098Z,22.18
2023-12-13T02:49:39.786Z,21.40
2023-12-13T02:50:42.436Z,21.70
2023-12-13T02:51:45.051Z,20.45
2023-12-13T02:52:47.832Z,21.65
2023-12-13T02:53:50.519Z,20.92
2023-12-13T02:54:53.131Z,21.62
2023-12-13T02:55:55.868Z,22.05
2023-12-13T02:56:58.538Z,20.88
2023-12-13T02:58:01.850Z,20.97
2023-12-13T02:59:04.450Z,20.75
2023-12-13T03:00:08.113Z,20.98
2023-12-13T03:01:10.802Z,20.28
2023-12-13T03:02:13.499Z,20.52
2023-12-13T03:03:16.202Z,20.17
2023-12-13T03:04:18.873Z,20.43
2023-12-13T03:05:21.592Z,20.02
2023-12-13T03:06:24.265Z,21.88
2023-12-13T03:07:26.910Z,20.72
2023-12-13T03:08:30.074Z,20.42
2023-12-13T03:09:32.687Z,19.48
2023-12-13T03:10:35.312Z,18.57
2023-12-13T03:11:37.911Z,19.57
2023-12-13T03:12:40.856Z,19.22
2023-12-13T03:13:43.559Z,18.98
2023-12-13T03:14:46.183Z,19.00
2023-12-13T03:15:48.755Z,19.20
2023-12-13T03:16:51.353Z,19.20
2023-12-13T03:17:54.029Z,18.57
2023-12-13T03:18:56.855Z,18.45
2023-12-13T03:19:59.562Z,17.75
2023-12-13T03:21:02.145Z,18.12
2023-12-13T03:22:04.764Z,17.95
2023-12-13T03:23:09.503Z,16.75
2023-12-13T03:24:12.185Z,17.30
2023-12-13T03:25:15.251Z,17.32
2023-12-13T03:26:19.484Z,17.37
2023-12-13T03:27:22.084Z,17.17
2023-12-13T03:28:24.714Z,16.32
2023-12-13T03:29:27.388Z,15.98
2023-12-13T03:30:30.013Z,15.70
2023-12-13T03:31:32.663Z,15.82
2023-12-13T03:32:35.351Z,15.90
2023-12-13T03:33:38.213Z,16.42
2023-12-13T03:34:41.059Z,16.43
2023-12-13T03:35:43.679Z,15.93
2023-12-13T03:36:46.267Z,15.93
2023-12-13T03:37:49.211Z,15.45
2023-12-13T03:38:51.900Z,15.30
2023-12-13T03:39:54.529Z,15.98
2023-12-13T03:40:57.124Z,15.72
2023-12-13T03:41:59.738Z,16.05
2023-12-13T03:43:03.117Z,15.72
2023-12-13T03:44:05.744Z,16.08
2023-12-13T03:45:08.600Z,16.60
2023-12-13T03:46:11.303Z,16.55
2023-12-13T03:47:14.081Z,17.25
2023-12-13T03:48:16.801Z,16.88
2023-12-13T03:49:19.591Z,16.15
2023-12-13T03:50:22.514Z,16.23
2023-12-13T03:51:25.120Z,16.83
2023-12-13T03:52:27.697Z,17.12
2023-12-13T03:53:30.697Z,16.35
2023-12-13T03:54:33.252Z,17.07
2023-12-13T03:55:35.928Z,16.25
2023-12-13T03:56:38.578Z,15.32
2023-12-13T03:57:41.187Z,16.10
2023-12-13T03:58:43.911Z,15.77
2023-12-13T03:59:46.523Z,15.67
2023-12-13T04:00:49.201Z,15.17
2023-12-13T04:01:51.888Z,15.70
2023-12-13T04:02:54.497Z,15.13
2023-12-13T04:03:57.167Z,15.68
2023-12-13T04:04:59.885Z,15.15
2023-12-13T04:06:03.430Z,14.93
2023-12-13T04:07:07.332Z,15.13
2023-12-13T04:08:10.160Z,14.15
2023-12-13T04:09:13.099Z,13.40
2023-12-13T04:10:18.322Z,13.68
2023-12-13T04:11:20.974Z,13.52
2023-12-13T04:12:23.670Z,13.63
2023-12-13T04:13:26.284Z,12.90
2023-12-13T04:14:28.908Z,13.52
2023-12-13T04:15:32.107Z,13.45
2023-12-13T04:16:34.824Z,13.07
2023-12-13T04:17:38.126Z,14.45
2023-12-13T04:18:40.955Z,13.28
2023-12-13T04:19:43.695Z,13.23
2023-12-13T04:20:46.286Z,13.00
2023-12-13T04:21:48.926Z,12.77
2023-12-13T04:22:51.592Z,12.93
2023-12-13T04:23:54.290Z,13.00
2023-12-13T04:24:56.873Z,12.58
2023-12-13T04:25:59.479Z,12.33
2023-12-13T04:27:02.133Z,12.52
2023-12-13T04:28:05.083Z,12.35
2023-12-13T04:29:07.708Z,13.27
2023-12-13T04:30:12.651Z,11.95
2023-12-13T04:31:15.348Z,12.15
2023-12-13T04:32:18.224Z,12.48
2023-12-13T04:33:20.868Z,10.65
2023-12-13T04:34:23.556Z,12.08
2023-12-13T04:35:26.336Z,12.07
2023-12-13T04:36:29.210Z,12.25
2023-12-13T04:37:32.059Z,12.20
2023-12-13T04:38:35.319Z,11.92
2023-12-13T04:39:39.319Z,11.82
2023-12-13T04:40:42.622Z,12.47
2023-12-13T04:41:45.260Z,12.87
2023-12-13T04:42:47.992Z,11.82
2023-12-13T04:43:50.638Z,11.95
2023-12-13T04:44:54.469Z,12.53
2023-12-13T04:45:57.079Z,12.18
2023-12-13T04:47:03.063Z,11.63
2023-12-13T04:48:06.475Z,12.58
2023-12-13T04:49:09.267Z,12.95
2023-12-13T04:50:12.044Z,12.85
2023-12-13T04:51:14.695Z,12.72
2023-12-13T04:52:17.389Z,11.43
2023-12-13T04:53:20.043Z,11.47
2023-12-13T04:54:23.537Z,11.67
2023-12-13T04:55:26.308Z,12.87
2023-12-13T04:56:28.899Z,12.83
2023-12-13T04:57:31.680Z,12.25
2023-12-13T04:58:34.846Z,11.50
2023-12-13T04:59:37.835Z,11.78
2023-12-13T05:00:40.455Z,11.47
2023-12-13T05:01:43.393Z,11.52
2023-12-13T05:02:46.403Z,11.30
2023-12-13T05:03:49.096Z,10.47
2023-12-13T05:04:51.785Z,10.57
2023-12-13T05:05:54.561Z,10.75
2023-12-13T05:06:57.206Z,10.70
2023-12-13T05:07:59.960Z,11.15
2023-12-13T05:09:02.646Z,11.13
2023-12-13T05:10:05.757Z,10.57
2023-12-13T05:11:08.379Z,10.37
2023-12-13T05:12:10.965Z,10.53
2023-12-13T05:13:13.675Z,10.30
2023-12-13T05:14:16.313Z,10.88
2023-12-13T05:15:18.930Z,10.52
2023-12-13T05:16:21.573Z,9.53
2023-12-13T05:17:24.269Z,9.33
2023-12-13T05:18:26.917Z,9.37
2023-12-13T05:19:29.711Z,9.92
2023-12-13T05:20:32.628Z,10.42
2023-12-13T05:21:35.202Z,10.53
2023-12-13T05:22:37.823Z,10.10
2023-12-13T05:23:40.812Z,10.27
2023-12-13T05:24:44.005Z,10.15
2023-12-13T05:25:46.753Z,10.15
2023-12-13T05:26:49.353Z,10.40
2023-12-13T05:27:52.221Z,10.12
2023-12-13T05:28:54.845Z,9.47
2023-12-13T05:29:57.518Z,9.42
2023-12-13T05:31:00.142Z,9.78
2023-12-13T05:32:02.940Z,9.50
2023-12-13T05:33:07.328Z,9.23
2023-12-13T05:34:10.125Z,9.48
2023-12-13T05:35:12.763Z,9.75
2023-12-13T05:36:15.415Z,9.65
2023-12-13T05:37:18.116Z,8.83
2023-12-13T05:38:20.726Z,9.62
2023-12-13T05:39:23.307Z,9.22
2023-12-13T05:40:25.991Z,9.40
2023-12-13T05:41:28.640Z,8.92
2023-12-13T05:42:31.237Z,8.48
2023-12-13T05:43:36.551Z,8.53
2023-12-13T05:44:39.223Z,8.67
2023-12-13T05:45:41.869Z,8.93
2023-12-13T05:46:44.478Z,8.73
2023-12-13T05:47:47.190Z,8.50
2023-12-13T05:48:50.438Z,8.40
2023-12-13T05:49:53.300Z,8.50
2023-12-13T05:50:55.947Z,8.30
2023-12-13T05:51:58.549Z,8.43
2023-12-13T05:53:01.219Z,8.93
2023-12-13T05:54:03.974Z,8.80
2023-12-13T05:55:07.673Z,9.28
2023-12-13T05:56:12.169Z,8.22
2023-12-13T05:57:14.774Z,8.50
2023-12-13T05:58:17.436Z,8.78
2023-12-13T05:59:20.303Z,8.93
2023-12-13T06:00:22.939Z,8.92
2023-12-13T06:01:25.609Z,8.48
2023-12-13T06:02:28.289Z,8.32
2023-12-13T06:03:31.335Z,8.58
2023-12-13T06:04:34.144Z,8.12
2023-12-13T06:05:37.477Z,8.02
2023-12-13T06:06:47.093Z,9.58
2023-12-13T06:07:50.118Z,12.57
2023-12-13T06:08:52.958Z,13.72
2023-12-13T06:09:55.563Z,12.93
2023-12-13T06:10:59.550Z,10.35
2023-12-13T06:12:04.290Z,10.68
2023-12-13T06:13:06.908Z,10.18
2023-12-13T06:14:09.542Z,8.80
2023-12-13T06:15:12.142Z,8.60
2023-12-13T06:16:15.065Z,8.10
2023-12-13T06:17:17.759Z,8.02
2023-12-13T06:18:20.464Z,7.52
2023-12-13T06:19:23.248Z,7.83
2023-12-13T06:20:25.903Z,8.25
2023-12-13T06:21:28.476Z,8.77
2023-12-13T06:22:31.138Z,8.90
2023-12-13T06:23:33.949Z,8.93
2023-12-13T06:24:36.555Z,8.28
2023-12-13T06:25:39.252Z,8.87
2023-12-13T06:26:42.087Z,9.47
2023-12-13T06:27:44.746Z,9.22
2023-12-13T06:28:47.479Z,9.48
2023-12-13T06:29:50.159Z,8.32
2023-12-13T06:30:52.818Z,7.97
2023-12-13T06:31:55.672Z,7.43
2023-12-13T06:32:58.453Z,6.77
2023-12-13T06:34:01.260Z,8.12
2023-12-13T06:35:04.217Z,7.40
2023-12-13T06:36:08.253Z,6.78
2023-12-13T06:37:10.924Z,6.83
2023-12-13T06:38:13.849Z,7.28
2023-12-13T06:39:17.531Z,7.55
2023-12-13T06:40:20.258Z,8.88
2023-12-13T06:41:24.523Z,11.03
2023-12-13T06:42:27.629Z,9.88
2023-12-13T06:43:31.510Z,9.15
2023-12-13T06:44:34.190Z,9.50
2023-12-13T06:45:37.055Z,9.38
2023-12-13T06:46:40.071Z,8.72
2023-12-13T06:47:43.356Z,8.62
2023-12-13T06:48:49.168Z,7.98
2023-12-13T06:49:58.842Z,8.05
2023-12-13T06:51:01.687Z,8.72
2023-12-13T06:52:06.960Z,9.10
2023-12-13T06:53:33.883Z,9.42
2023-12-13T06:54:43.592Z,11.82
2023-12-13T06:55:50.291Z,10.18
2023-12-13T06:56:53.319Z,9.58
2023-12-13T06:58:00.994Z,9.10
2023-12-13T06:59:03.637Z,9.00
2023-12-13T07:00:14.692Z,8.62
2023-12-13T07:01:17.581Z,9.47
2023-12-13T07:02:43.016Z,9.52
2023-12-13T07:03:48.502Z,9.52
2023-12-13T07:04:55.331Z,9.23
2023-12-13T07:06:06.117Z,8.72
2023-12-13T07:07:20.950Z,8.98
2023-12-13T07:08:24.316Z,8.47
2023-12-13T07:09:27.306Z,9.08
2023-12-13T07:10:30.110Z,8.52
2023-12-13T07:11:34.352Z,7.83
2023-12-13T07:12:37.249Z,8.47
2023-12-13T07:13:39.979Z,8.08
2023-12-13T07:14:44.963Z,7.28
2023-12-13T07:15:48.107Z,7.57
2023-12-13T07:16:50.888Z,7.83
2023-12-13T07:18:23.581Z,8.57
2023-12-13T07:19:26.291Z,9.35
2023-12-13T07:20:29.000Z,8.48
2023-12-13T07:21:31.640Z,8.05
2023-12-13T07:22:34.544Z,7.93
2023-12-13T07:23:37.920Z,8.00
2023-12-13T07:24:40.951Z,7.90
2023-12-13T07:25:43.824Z,8.05
2023-12-13T07:26:46.741Z,8.65
2023-12-13T07:27:49.426Z,8.20
2023-12-13T07:28:52.061Z,7.83
2023-12-13T07:29:54.757Z,7.93
2023-12-13T07:31:06.210Z,8.03
2023-12-13T07:32:12.581Z,8.62
2023-12-13T07:33:15.448Z,8.82
2023-12-13T07:34:20.235Z,8.67
2023-12-13T07:35:23.908Z,9.08
2023-12-13T07:36:26.665Z,9.02
2023-12-13T07:37:29.555Z,8.92
2023-12-13T07:38:32.225Z,9.07
2023-12-13T07:39:36.679Z,9.63
2023-12-13T07:40:39.325Z,9.05
2023-12-13T07:41:41.958Z,10.20
2023-12-13T07:42:44.712Z,11.83
2023-12-13T07:43:47.463Z,9.32
2023-12-13T07:44:50.129Z,8.32
2023-12-13T07:45:53.512Z,9.02
2023-12-13T07:46:56.330Z,8.75
2023-12-13T07:48:09.369Z,8.08
2023-12-13T07:49:33.753Z,8.22
2023-12-13T07:50:38.356Z,10.12
2023-12-13T07:51:53.568Z,13.68
2023-12-13T07:52:58.468Z,11.38
2023-12-13T07:54:03.001Z,11.78
2023-12-13T07:55:09.668Z,13.58
2023-12-13T07:56:21.466Z,11.45
2023-12-13T07:57:37.326Z,8.87
2023-12-13T07:58:42.113Z,8.13
2023-12-13T07:59:44.705Z,7.98
2023-12-13T08:00:47.743Z,7.53
2023-12-13T08:01:50.590Z,8.88
2023-12-13T08:02:53.884Z,9.20
2023-12-13T08:03:57.679Z,10.03
2023-12-13T08:05:00.453Z,20.48
2023-12-13T08:06:05.433Z,21.80
2023-12-13T08:07:09.089Z,14.33
2023-12-13T08:08:11.744Z,14.37
2023-12-13T08:09:14.533Z,13.00
2023-12-13T08:10:17.234Z,14.17
2023-12-13T08:11:19.899Z,14.28
2023-12-13T08:12:22.562Z,12.00
2023-12-13T08:13:25.281Z,12.05
2023-12-13T08:14:32.092Z,10.22
2023-12-13T08:15:34.866Z,8.27
2023-12-13T08:16:37.635Z,7.22
2023-12-13T08:17:40.451Z,7.50
2023-12-13T08:18:43.209Z,6.33
2023-12-13T08:19:45.997Z,6.43
2023-12-13T08:20:48.974Z,6.28
2023-12-13T08:21:53.154Z,6.82
2023-12-13T08:22:56.791Z,7.13
2023-12-13T08:24:00.003Z,6.93
2023-12-13T08:25:04.539Z,6.60
2023-12-13T08:26:07.917Z,6.43
2023-12-13T08:27:11.085Z,6.97
2023-12-13T08:28:13.905Z,6.83
2023-12-13T08:29:17.184Z,6.00
2023-12-13T08:30:20.180Z,6.45
2023-12-13T08:31:27.220Z,7.20
2023-12-13T08:32:31.074Z,6.25
2023-12-13T08:33:33.711Z,7.20
2023-12-13T08:34:36.678Z,10.72
2023-12-13T08:35:39.315Z,9.68
2023-12-13T08:36:42.117Z,8.87
2023-12-13T08:37:45.158Z,8.83
2023-12-13T08:38:47.892Z,13.55
2023-12-13T08:39:50.645Z,11.65
2023-12-13T08:40:53.365Z,18.40
2023-12-13T08:41:58.845Z,39.53
2023-12-13T08:43:04.634Z,30.23
2023-12-13T08:44:07.544Z,21.62
2023-12-13T08:45:11.611Z,14.05
2023-12-13T08:46:14.477Z,17.67
2023-12-13T08:47:17.248Z,21.47
2023-12-13T08:48:21.947Z,23.43
2023-12-13T08:49:24.917Z,22.40
2023-12-13T08:50:32.572Z,7.13
2023-12-13T08:52:05.715Z,5.72
2023-12-13T08:53:10.575Z,5.85
2023-12-13T08:55:43.606Z,5.50
2023-12-13T08:56:47.189Z,5.88
2023-12-13T08:57:49.867Z,6.07
2023-12-13T08:58:54.085Z,6.13
2023-12-13T09:00:05.670Z,6.67
2023-12-13T09:01:13.985Z,6.35
2023-12-13T09:02:17.149Z,6.07
2023-12-13T09:03:21.162Z,5.88
2023-12-13T09:04:23.972Z,6.65
2023-12-13T09:05:26.703Z,6.60
2023-12-13T09:06:29.392Z,7.17
2023-12-13T09:07:33.764Z,7.63
2023-12-13T09:08:36.906Z,7.55
2023-12-13T09:09:39.864Z,7.32
2023-12-13T09:10:43.225Z,7.53
2023-12-13T09:11:47.580Z,7.52
2023-12-13T09:12:51.581Z,7.75
2023-12-13T09:13:54.410Z,8.80
2023-12-13T09:14:57.073Z,8.65
2023-12-13T09:16:02.660Z,8.72
2023-12-13T09:17:05.760Z,8.55
2023-12-13T09:18:08.468Z,8.35
2023-12-13T09:19:11.244Z,9.18
2023-12-13T09:20:16.885Z,9.08
2023-12-13T09:21:19.676Z,9.20
2023-12-13T09:22:22.385Z,10.05
2023-12-13T09:23:26.104Z,10.78
2023-12-13T09:24:28.771Z,10.43
2023-12-13T09:25:31.425Z,10.47
2023-12-13T09:26:34.406Z,10.57
2023-12-13T09:27:37.687Z,10.75
2023-12-13T09:28:40.344Z,10.12
2023-12-13T09:29:44.054Z,9.48
2023-12-13T09:30:46.876Z,9.07
2023-12-13T09:31:49.710Z,8.88
2023-12-13T09:32:52.434Z,8.17
2023-12-13T09:33:56.505Z,8.72
2023-12-13T09:34:59.336Z,8.23
2023-12-13T09:36:02.000Z,9.38
2023-12-13T09:37:04.839Z,9.15
2023-12-13T09:38:08.508Z,8.47
2023-12-13T09:39:18.203Z,8.02
2023-12-13T09:40:24.047Z,8.27
2023-12-13T09:41:34.479Z,7.72
2023-12-13T09:42:41.352Z,7.30
2023-12-13T09:43:46.246Z,7.65
2023-12-13T09:45:03.113Z,7.40
2023-12-13T09:47:04.464Z,6.90
2023-12-13T09:55:24.323Z,10.30
2023-12-13T09:56:28.013Z,11.95
2023-12-13T09:57:34.659Z,12.97
2023-12-13T09:59:24.486Z,12.15
2023-12-13T10:00:27.472Z,8.22
2023-12-13T10:01:30.327Z,9.72
2023-12-13T10:02:33.853Z,10.18
2023-12-13T10:03:36.960Z,10.08
2023-12-13T10:04:40.105Z,8.53
2023-12-13T10:05:46.303Z,8.28
2023-12-13T10:06:49.194Z,9.30
2023-12-13T10:08:01.369Z,29.28
2023-12-13T10:09:04.849Z,22.65
2023-12-13T10:10:08.415Z,18.15
2023-12-13T10:11:12.787Z,9.57
2023-12-13T10:12:17.215Z,8.27
2023-12-13T10:13:20.021Z,7.95
2023-12-13T10:14:24.012Z,7.73
2023-12-13T10:15:33.406Z,8.60
2023-12-13T10:16:40.168Z,10.23
2023-12-13T10:17:43.837Z,11.58
2023-12-13T10:18:48.437Z,14.58
2023-12-13T10:19:51.242Z,20.95
2023-12-13T10:20:53.971Z,19.23
2023-12-13T10:21:56.693Z,15.52
2023-12-13T10:22:59.354Z,8.77
2023-12-13T10:24:02.577Z,8.98
2023-12-13T10:25:06.155Z,8.78
2023-12-13T10:26:10.061Z,7.92
2023-12-13T10:27:13.497Z,7.57
2023-12-13T10:28:16.137Z,7.85
2023-12-13T10:29:22.266Z,8.30
2023-12-13T10:30:26.354Z,7.93
2023-12-13T10:31:29.120Z,8.97
2023-12-13T10:32:33.222Z,9.43
2023-12-13T10:33:37.020Z,8.92
2023-12-13T10:34:45.757Z,9.15
2023-12-13T10:35:56.350Z,9.77
2023-12-13T10:38:59.834Z,10.55
2023-12-13T10:40:17.018Z,13.40
2023-12-13T10:41:37.741Z,11.87
2023-12-13T10:43:01.017Z,10.43
2023-12-13T10:44:10.049Z,14.65
2023-12-13T10:45:19.489Z,19.27
2023-12-13T10:46:29.762Z,18.52
2023-12-13T10:47:41.313Z,17.02
2023-12-13T10:48:44.755Z,17.90
2023-12-13T10:49:49.950Z,16.27
2023-12-13T10:50:53.344Z,15.35
2023-12-13T10:51:57.721Z,12.38
2023-12-13T10:53:02.844Z,10.93
2023-12-13T10:54:05.616Z,12.35
2023-12-13T10:55:10.047Z,13.13
2023-12-13T10:56:13.668Z,11.57
2023-12-13T10:57:17.622Z,11.80
2023-12-13T10:58:22.370Z,11.68
2023-12-13T10:59:32.180Z,14.15
2023-12-13T11:00:35.497Z,15.85
2023-12-13T11:01:44.078Z,13.85
2023-12-13T11:02:53.654Z,11.23
2023-12-13T11:04:08.847Z,10.43
2023-12-13T11:05:12.069Z,10.98
2023-12-13T11:06:16.231Z,13.08
2023-12-13T11:07:22.531Z,13.83
2023-12-13T11:08:25.965Z,12.40
2023-12-13T11:09:30.807Z,11.22
2023-12-13T11:10:33.485Z,10.80
2023-12-13T11:11:36.412Z,10.60
2023-12-13T11:13:00.379Z,10.88
2023-12-13T11:14:03.253Z,11.52
2023-12-13T11:15:14.160Z,11.83
2023-12-13T11:16:21.115Z,11.57
2023-12-13T11:17:25.189Z,12.23
2023-12-13T11:18:32.233Z,13.98
2023-12-13T11:19:37.703Z,14.57
2023-12-13T11:20:48.908Z,16.70
2023-12-13T11:21:54.952Z,15.18
2023-12-13T11:22:58.663Z,15.13
2023-12-13T11:24:14.607Z,14.78
2023-12-13T11:25:18.371Z,15.37
2023-12-13T11:26:25.192Z,15.55
2023-12-13T11:27:31.916Z,16.30
2023-12-13T11:28:39.325Z,19.42
2023-12-13T11:29:49.598Z,16.65
2023-12-13T11:30:58.545Z,16.67
2023-12-13T11:32:07.588Z,12.77
2023-12-13T11:33:25.643Z,13.10
2023-12-13T11:35:11.389Z,12.02
2023-12-13T11:36:19.430Z,13.83
2023-12-13T11:37:23.511Z,13.47
2023-12-13T11:38:27.486Z,13.78
2023-12-13T11:39:33.518Z,17.20
2023-12-13T11:40:39.055Z,14.58
2023-12-13T11:41:47.202Z,11.43
2023-12-13T11:43:16.895Z,14.47
2023-12-13T11:44:22.978Z,15.55
2023-12-13T11:45:25.764Z,13.13
2023-12-13T11:49:29.884Z,10.28
2023-12-13T11:51:04.802Z,13.98
2023-12-13T11:53:15.817Z,11.00
2023-12-13T11:54:20.515Z,10.32
2023-12-13T11:55:25.747Z,11.12
2023-12-13T11:56:29.059Z,12.30
2023-12-13T11:57:32.498Z,13.80
2023-12-13T11:58:36.962Z,14.80
2023-12-13T11:59:43.867Z,15.17
2023-12-13T12:00:49.677Z,15.57
2023-12-13T12:01:54.711Z,14.50
2023-12-13T12:03:03.253Z,14.47
2023-12-13T12:04:06.959Z,13.17
2023-12-13T12:05:09.881Z,13.45
2023-12-13T12:06:20.458Z,13.37
2023-12-13T12:08:25.094Z,13.38
2023-12-13T12:09:31.255Z,13.87
2023-12-13T12:11:14.258Z,12.85
2023-12-13T12:12:18.408Z,14.37
2023-12-13T12:13:22.684Z,14.80
2023-12-13T12:14:29.655Z,14.93
2023-12-13T12:15:33.680Z,15.38
2023-12-13T12:16:42.218Z,15.08
2023-12-13T12:17:45.214Z,20.95
2023-12-13T12:18:48.223Z,18.05
2023-12-13T12:19:53.128Z,13.08
2023-12-13T12:20:57.849Z,13.00
2023-12-13T12:22:04.508Z,13.40
2023-12-13T12:23:08.103Z,16.55
2023-12-13T12:24:12.137Z,18.55
2023-12-13T12:25:15.892Z,15.37
2023-12-13T12:26:22.654Z,13.97
2023-12-13T12:28:24.840Z,15.85
2023-12-13T12:29:30.155Z,13.75
2023-12-13T12:30:44.841Z,15.73
2023-12-13T12:31:49.120Z,16.48
2023-12-13T12:33:00.771Z,17.60
2023-12-13T12:36:36.369Z,18.47
2023-12-13T12:42:42.668Z,16.47
2023-12-13T12:45:15.962Z,14.53
2023-12-13T12:48:43.020Z,16.63
2023-12-13T13:01:16.197Z,14.65
2023-12-13T13:02:25.974Z,20.80
2023-12-13T13:03:31.594Z,17.43
2023-12-13T13:05:26.929Z,18.57
2023-12-13T13:06:31.485Z,20.37
2023-12-13T13:08:20.232Z,18.72
2023-12-13T13:09:23.406Z,15.52
2023-12-13T13:10:26.363Z,13.53
2023-12-13T13:11:28.964Z,15.25
2023-12-13T13:12:32.636Z,15.58
2023-12-13T13:13:36.136Z,16.80
2023-12-13T13:14:41.321Z,17.50
2023-12-13T13:15:50.658Z,17.80
2023-12-13T13:19:37.993Z,18.45
2023-12-13T13:25:42.811Z,17.12
2023-12-13T13:30:24.446Z,15.88
2023-12-13T13:31:32.918Z,16.35
2023-12-13T13:36:07.976Z,17.58
2023-12-13T13:37:15.384Z,17.12
2023-12-13T13:38:20.685Z,19.63
2023-12-13T13:40:49.903Z,20.33
2023-12-13T13:43:09.498Z,22.55
2023-12-13T13:44:12.350Z,21.87
2023-12-13T13:45:15.232Z,21.37
2023-12-13T13:46:18.389Z,23.72
2023-12-13T13:47:21.245Z,25.40
2023-12-13T13:48:24.118Z,24.10
2023-12-13T13:49:27.029Z,24.40
2023-12-13T13:50:29.776Z,24.47
2023-12-13T13:51:32.771Z,25.10
2023-12-13T13:52:36.003Z,26.22
2023-12-13T13:53:43.185Z,26.93
2023-12-13T13:54:45.887Z,25.60
2023-12-13T13:55:48.753Z,23.47
2023-12-13T13:56:51.456Z,24.77
2023-12-13T13:57:54.214Z,28.97
2023-12-13T13:58:57.115Z,31.67
2023-12-13T13:59:59.951Z,30.08
2023-12-13T14:01:02.821Z,30.90
2023-12-13T14:02:06.128Z,30.83
2023-12-13T14:03:09.080Z,30.50
2023-12-13T14:04:11.866Z,28.60
2023-12-13T14:05:14.706Z,29.63
2023-12-13T14:06:17.986Z,30.75
2023-12-13T14:07:21.410Z,29.60
2023-12-13T14:08:24.603Z,29.30
2023-12-13T14:09:27.398Z,33.87
2023-12-13T14:10:31.215Z,37.77
2023-12-13T14:11:36.098Z,39.82
2023-12-13T14:12:38.685Z,31.70
2023-12-13T14:13:41.322Z,32.10
2023-12-13T14:14:43.972Z,30.82
2023-12-13T14:15:49.482Z,37.58
2023-12-13T14:16:52.246Z,49.70
2023-12-13T14:17:55.805Z,45.78
2023-12-13T14:18:58.675Z,37.82
2023-12-13T14:20:02.160Z,27.73
2023-12-13T14:21:05.378Z,26.45
2023-12-13T14:22:09.134Z,38.45
2023-12-13T14:23:12.817Z,39.17
2023-12-13T14:24:20.420Z,43.75
2023-12-13T14:25:23.497Z,36.67
2023-12-13T14:26:26.434Z,40.50
2023-12-13T14:27:29.330Z,40.30
2023-12-13T14:28:31.993Z,34.88
2023-12-13T14:29:34.667Z,33.00
2023-12-13T14:30:37.333Z,32.67
2023-12-13T14:31:40.030Z,29.97
2023-12-13T14:32:44.359Z,28.43
2023-12-13T14:33:48.126Z,29.53
2023-12-13T14:34:50.946Z,29.68
2023-12-13T14:35:54.729Z,28.92
2023-12-13T14:36:57.383Z,30.07
2023-12-13T14:38:00.467Z,30.48
2023-12-13T14:39:03.646Z,30.52
2023-12-13T14:40:06.936Z,30.37
2023-12-13T14:41:10.050Z,31.15
2023-12-13T14:42:13.375Z,33.80
2023-12-13T14:43:18.430Z,33.92
2023-12-13T14:44:21.761Z,42.98
2023-12-13T14:45:26.020Z,47.80
2023-12-13T14:46:28.614Z,47.08
2023-12-13T14:47:31.391Z,48.08
2023-12-13T14:48:35.049Z,43.05
2023-12-13T14:49:37.916Z,45.37
2023-12-13T14:50:40.674Z,52.00
2023-12-13T14:51:44.442Z,55.75
2023-12-13T14:57:36.615Z,72.93
2023-12-13T14:58:41.322Z,56.08
2023-12-13T14:59:43.913Z,53.15
2023-12-13T15:00:46.565Z,45.87
2023-12-13T15:01:49.954Z,44.73